Aviation Digital Data Service (ADDS)

Output produced by METARs form (1921 UTC 19 August 2019)
found at http://www.aviationweather.gov/metar/data/
 
Forecast for: BIIS (ISAFJOROUR , IS)
Text: TAF BIIS 191602Z 1917/2002 02010KT CAVOK
Forecast period: 1700 UTC 19 August 2019 to 0200 UTC 20 August 2019
Forecast type: FROM: standard forecast or significant change
Winds: from the NNE (20 degrees) at 12 MPH (10 knots; 5.1 m/s)
Visibility: 6 or more miles 10+ km)
Ceiling: unknown
Clouds: missing
Weather: NSW  (no significant weather)